Time;durP1;ratioP1;P1;durP2;ratioP2;P2;SDS_P1;SDS_P2;PMS_P1;PMS_P2;Temp;Humidity;BMP_temperature;BMP_pressure;BME280_temperature;BME280_humidity;BME280_pressure;Samples;Min_cycle;Max_cycle;Signal;HPM_P1;HPM_P2
2023/05/22 00:01:07;;;;;;;11.68;9.35;;;19.80;99.90;;;;;;4970140;28;20294;-65
2023/05/22 00:03:33;;;;;;;11.55;9.88;;;19.70;99.90;;;;;;4969562;28;20188;-67
2023/05/22 00:06:00;;;;;;;10.77;9.48;;;19.70;99.90;;;;;;4968121;28;20195;-67
2023/05/22 00:08:29;;;;;;;13.15;9.30;;;19.70;99.90;;;;;;4974017;28;20218;-67
2023/05/22 00:10:56;;;;;;;12.10;10.20;;;19.60;99.90;;;;;;4971206;28;20205;-68
2023/05/22 00:13:22;;;;;;;11.15;9.80;;;19.60;99.90;;;;;;4973168;28;20362;-67
2023/05/22 00:15:48;;;;;;;10.93;9.75;;;19.60;99.90;;;;;;4966354;28;20203;-68
2023/05/22 00:18:13;;;;;;;10.93;9.40;;;19.60;99.90;;;;;;4972854;28;20251;-67
2023/05/22 00:20:39;;;;;;;10.68;9.23;;;19.60;99.90;;;;;;4973660;28;20191;-66
2023/05/22 00:23:10;;;;;;;11.05;9.77;;;19.50;99.90;;;;;;4965512;28;20172;-67
2023/05/22 00:25:36;;;;;;;11.48;9.65;;;19.60;99.90;;;;;;4980958;28;20275;-63
2023/05/22 00:28:04;;;;;;;9.57;8.57;;;19.50;99.90;;;;;;4971561;28;20294;-64
2023/05/22 00:30:33;;;;;;;10.80;9.60;;;19.50;99.90;;;;;;4969007;28;20219;-67
2023/05/22 00:32:59;;;;;;;11.55;9.52;;;19.40;99.90;;;;;;4970470;28;20184;-68
2023/05/22 00:35:25;;;;;;;11.73;9.95;;;19.40;99.90;;;;;;4970894;28;20383;-67
2023/05/22 00:37:53;;;;;;;13.38;10.20;;;19.30;99.90;;;;;;4970548;28;20188;-64
2023/05/22 00:40:20;;;;;;;12.30;9.95;;;19.30;99.90;;;;;;4970826;28;20181;-67
2023/05/22 00:42:46;;;;;;;12.98;10.70;;;19.30;99.90;;;;;;4968308;28;20262;-66
2023/05/22 00:45:15;;;;;;;12.10;10.02;;;19.30;99.90;;;;;;4969911;28;20191;-64
2023/05/22 00:47:44;;;;;;;11.70;10.27;;;19.30;99.90;;;;;;4967167;28;20195;-66
2023/05/22 00:50:14;;;;;;;12.50;10.70;;;19.20;99.90;;;;;;4968487;28;20200;-67
2023/05/22 00:52:42;;;;;;;11.77;10.52;;;19.20;99.90;;;;;;4967451;28;20177;-67
2023/05/22 00:55:12;;;;;;;14.13;11.15;;;19.20;99.90;;;;;;4965111;28;20181;-66
2023/05/22 00:57:41;;;;;;;12.45;10.68;;;19.20;99.90;;;;;;4971097;28;20206;-67
2023/05/22 01:00:12;;;;;;;13.20;11.20;;;19.10;99.90;;;;;;4966663;28;20177;-66
2023/05/22 01:02:38;;;;;;;11.82;10.55;;;19.10;99.90;;;;;;4967336;28;20190;-65
2023/05/22 01:05:05;;;;;;;14.93;11.23;;;19.10;99.90;;;;;;4969717;28;20183;-67
2023/05/22 01:07:36;;;;;;;15.15;11.63;;;19.10;99.90;;;;;;4968794;28;20180;-65
2023/05/22 01:10:05;;;;;;;13.32;10.82;;;19.10;99.90;;;;;;4967341;28;20188;-66
2023/05/22 01:13:04;;;;;;;13.10;11.43;;;19.10;99.90;;;;;;4969089;28;20172;-64
2023/05/22 01:16:03;;;;;;;14.25;11.77;;;19.10;99.90;;;;;;5000050;23;20286;-67
2023/05/22 01:18:45;;;;;;;13.40;11.48;;;19.10;99.90;;;;;;4946048;29;20273;-66
2023/05/22 01:21:38;;;;;;;15.80;11.55;;;19.00;99.90;;;;;;4933246;29;20178;-67
2023/05/22 01:24:42;;;;;;;14.88;11.88;;;19.10;99.90;;;;;;4928758;29;20201;-69
2023/05/22 01:27:34;;;;;;;14.73;11.50;;;19.00;99.90;;;;;;4936779;29;20399;-66
2023/05/22 01:30:16;;;;;;;13.45;11.45;;;19.00;99.90;;;;;;4936841;29;20178;-67
2023/05/22 01:32:47;;;;;;;13.88;11.48;;;19.00;99.90;;;;;;4930901;29;20186;-67
2023/05/22 01:35:17;;;;;;;15.35;11.95;;;18.90;99.90;;;;;;4950353;29;20517;-63
2023/05/22 01:37:47;;;;;;;15.18;11.68;;;18.90;99.90;;;;;;4921819;29;20178;-67
2023/05/22 01:40:16;;;;;;;14.38;11.65;;;18.90;99.90;;;;;;4942108;29;20191;-68
2023/05/22 01:42:44;;;;;;;14.23;11.60;;;18.90;99.90;;;;;;4956058;29;20177;-66
2023/05/22 01:45:12;;;;;;;14.25;12.35;;;18.80;99.90;;;;;;4936365;29;20197;-67
2023/05/22 01:47:38;;;;;;;14.73;12.10;;;18.80;99.90;;;;;;4940531;29;20181;-66
2023/05/22 01:50:04;;;;;;;16.02;12.68;;;18.80;99.90;;;;;;4941363;29;20196;-66
2023/05/22 01:52:59;;;;;;;16.00;12.38;;;18.80;99.90;;;;;;4940363;29;20264;-66
2023/05/22 01:55:39;;;;;;;15.75;12.82;;;18.80;99.90;;;;;;4938304;29;20186;-67
2023/05/22 01:58:20;;;;;;;13.93;12.18;;;18.80;99.90;;;;;;4935759;29;20185;-67
2023/05/22 02:00:46;;;;;;;14.82;11.82;;;18.70;99.90;;;;;;4933356;29;20193;-67
2023/05/22 02:03:25;;;;;;;15.50;13.07;;;18.70;99.90;;;;;;4931054;29;20208;-66
2023/05/22 02:05:57;;;;;;;14.90;12.52;;;18.70;99.90;;;;;;4931109;29;20544;-67
2023/05/22 02:08:24;;;;;;;16.58;13.43;;;18.70;99.90;;;;;;4935587;29;20193;-64
2023/05/22 02:10:55;;;;;;;15.57;12.55;;;18.70;99.90;;;;;;4930626;29;20201;-67
2023/05/22 02:13:21;;;;;;;16.00;12.10;;;18.60;99.90;;;;;;4933351;29;20197;-67
2023/05/22 02:15:47;;;;;;;14.68;12.20;;;18.60;99.90;;;;;;4935791;29;20190;-67
2023/05/22 02:18:13;;;;;;;15.80;12.63;;;18.60;99.90;;;;;;4933231;29;20182;-65
2023/05/22 02:20:42;;;;;;;15.48;12.52;;;18.60;99.90;;;;;;4936398;29;20205;-67
2023/05/22 02:23:07;;;;;;;15.55;12.57;;;18.60;99.90;;;;;;4934886;29;20180;-68
2023/05/22 02:25:33;;;;;;;16.67;13.70;;;18.50;99.90;;;;;;4927156;29;20417;-66
2023/05/22 02:27:59;;;;;;;15.43;12.10;;;18.50;99.90;;;;;;4932155;29;20213;-66
2023/05/22 02:30:25;;;;;;;16.38;12.57;;;18.50;99.90;;;;;;4938399;29;20209;-67
2023/05/22 02:32:53;;;;;;;15.95;12.52;;;18.40;99.90;;;;;;4932515;29;20236;-66
2023/05/22 02:35:21;;;;;;;13.98;12.13;;;18.50;99.90;;;;;;4937258;29;20205;-66
2023/05/22 02:37:49;;;;;;;16.77;12.65;;;18.40;99.90;;;;;;4935058;29;20184;-66
2023/05/22 02:40:17;;;;;;;15.23;12.52;;;18.40;99.90;;;;;;4934778;29;20233;-67
2023/05/22 02:42:44;;;;;;;16.25;13.18;;;18.40;99.90;;;;;;4930281;29;20206;-67
2023/05/22 02:45:12;;;;;;;16.65;12.98;;;18.40;99.90;;;;;;4933267;29;20182;-64
2023/05/22 02:47:40;;;;;;;17.70;13.70;;;18.30;99.90;;;;;;4944194;28;20245;-66
2023/05/22 02:50:06;;;;;;;15.45;13.50;;;18.30;99.90;;;;;;4930132;29;20197;-66
2023/05/22 02:52:32;;;;;;;16.27;13.32;;;18.30;99.90;;;;;;4935946;29;20189;-66
2023/05/22 02:55:00;;;;;;;16.73;12.80;;;18.30;99.90;;;;;;4935498;29;20181;-66
2023/05/22 02:57:28;;;;;;;16.08;12.93;;;18.20;99.90;;;;;;4931313;29;20205;-67
2023/05/22 02:59:53;;;;;;;16.10;13.07;;;18.20;99.90;;;;;;4932100;29;20185;-66
2023/05/22 03:02:27;;;;;;;15.88;13.25;;;18.20;99.90;;;;;;4933089;29;20189;-65
2023/05/22 03:04:57;;;;;;;15.52;12.48;;;18.10;99.90;;;;;;4927140;29;20217;-64
2023/05/22 03:07:25;;;;;;;16.38;13.20;;;18.10;99.90;;;;;;4938458;29;20192;-67
2023/05/22 03:09:51;;;;;;;16.17;13.23;;;18.10;99.90;;;;;;4922484;29;20181;-66
2023/05/22 03:12:19;;;;;;;17.13;12.93;;;18.00;99.90;;;;;;4942693;29;20197;-66
2023/05/22 03:14:49;;;;;;;16.58;12.90;;;18.00;99.90;;;;;;4934298;29;20197;-66
2023/05/22 03:17:17;;;;;;;17.02;13.63;;;18.00;99.90;;;;;;4938453;29;20188;-66
2023/05/22 03:19:43;;;;;;;16.67;13.60;;;17.90;99.90;;;;;;4935330;29;20205;-65
2023/05/22 03:22:09;;;;;;;18.42;14.80;;;17.90;99.90;;;;;;4927000;29;20186;-65
2023/05/22 03:24:34;;;;;;;19.52;14.70;;;17.90;99.90;;;;;;4954304;28;20216;-67
2023/05/22 03:27:00;;;;;;;19.65;14.38;;;17.90;99.90;;;;;;4940018;29;20173;-67
2023/05/22 03:29:27;;;;;;;16.55;13.85;;;17.80;99.90;;;;;;4937169;29;20182;-66
2023/05/22 03:31:56;;;;;;;16.95;13.38;;;17.80;99.90;;;;;;4924719;29;20220;-66
2023/05/22 03:34:26;;;;;;;18.85;14.30;;;17.80;99.90;;;;;;4938589;29;20173;-66
2023/05/22 03:36:56;;;;;;;16.83;13.00;;;17.80;99.90;;;;;;4936767;29;20201;-67
2023/05/22 03:39:22;;;;;;;17.95;13.90;;;17.80;99.90;;;;;;4929213;29;20197;-67
2023/05/22 03:41:48;;;;;;;17.80;13.98;;;17.70;99.90;;;;;;4940064;29;20189;-66
2023/05/22 03:44:13;;;;;;;19.08;13.98;;;17.70;99.90;;;;;;4933682;29;20211;-66
2023/05/22 03:46:39;;;;;;;15.05;12.60;;;17.70;99.90;;;;;;4938126;29;20213;-66
2023/05/22 03:49:04;;;;;;;16.85;13.90;;;17.70;99.90;;;;;;4938587;29;20183;-65
2023/05/22 03:51:30;;;;;;;16.88;13.32;;;17.70;99.90;;;;;;4938340;29;20197;-66
2023/05/22 03:53:58;;;;;;;16.83;13.18;;;17.60;99.90;;;;;;4938346;29;20256;-66
2023/05/22 03:56:24;;;;;;;15.02;12.77;;;17.70;99.90;;;;;;4936171;29;20224;-65
2023/05/22 03:58:52;;;;;;;16.65;12.82;;;17.60;99.90;;;;;;4929930;29;20201;-67
2023/05/22 04:01:17;;;;;;;17.52;14.10;;;17.60;99.90;;;;;;4930531;29;20213;-66
2023/05/22 04:03:46;;;;;;;15.27;13.25;;;17.60;99.90;;;;;;4932387;29;20190;-66
2023/05/22 04:06:12;;;;;;;17.10;13.60;;;17.60;99.90;;;;;;4933461;29;20181;-67
2023/05/22 04:08:42;;;;;;;18.10;14.07;;;17.60;99.90;;;;;;4933049;29;20214;-68
2023/05/22 04:11:08;;;;;;;20.08;14.15;;;17.60;99.90;;;;;;4926271;29;20205;-67
2023/05/22 04:13:34;;;;;;;17.45;13.60;;;17.60;99.90;;;;;;4932260;29;20173;-67
2023/05/22 04:16:00;;;;;;;16.85;13.15;;;17.60;99.90;;;;;;4933089;29;20268;-68
2023/05/22 04:18:26;;;;;;;15.65;12.68;;;17.60;99.90;;;;;;4940988;29;20193;-67
2023/05/22 04:20:52;;;;;;;18.25;12.93;;;17.60;99.90;;;;;;4941217;28;20197;-65
2023/05/22 04:23:20;;;;;;;16.33;13.30;;;17.60;99.90;;;;;;4931068;29;20585;-68
2023/05/22 04:25:47;;;;;;;14.32;11.95;;;17.60;99.90;;;;;;4942471;29;20196;-68
2023/05/22 04:28:21;;;;;;;17.90;12.93;;;17.60;99.90;;;;;;4945274;29;20213;-67
2023/05/22 04:30:47;;;;;;;14.60;11.98;;;17.70;99.90;;;;;;4930598;29;20205;-66
2023/05/22 04:33:16;;;;;;;15.10;12.75;;;17.70;99.90;;;;;;4927619;29;20182;-65
2023/05/22 04:35:47;;;;;;;15.75;13.13;;;17.70;99.90;;;;;;4929400;29;20269;-68
2023/05/22 04:38:14;;;;;;;16.80;13.02;;;17.80;99.90;;;;;;4923836;29;20182;-67
2023/05/22 04:40:43;;;;;;;16.25;12.98;;;17.80;99.90;;;;;;4932736;29;20285;-66
2023/05/22 04:43:10;;;;;;;16.45;13.50;;;17.80;99.90;;;;;;4928416;29;20204;-65
2023/05/22 04:45:36;;;;;;;16.45;13.55;;;17.80;99.90;;;;;;4932866;29;20336;-67
2023/05/22 04:48:07;;;;;;;17.48;13.30;;;17.80;99.90;;;;;;4924215;29;20245;-66
2023/05/22 04:50:37;;;;;;;17.75;13.75;;;17.90;99.90;;;;;;4938706;28;20258;-66
2023/05/22 04:53:03;;;;;;;16.05;13.18;;;17.90;99.90;;;;;;4925417;29;20216;-67
2023/05/22 04:55:32;;;;;;;16.80;13.10;;;17.90;99.90;;;;;;4932486;29;20216;-67
2023/05/22 04:58:01;;;;;;;18.75;13.90;;;17.90;99.90;;;;;;4927144;29;20202;-67
2023/05/22 05:00:27;;;;;;;17.17;13.32;;;17.90;99.90;;;;;;4926155;29;20186;-66
2023/05/22 05:02:56;;;;;;;17.10;13.90;;;17.90;99.90;;;;;;4920218;29;20268;-68
2023/05/22 05:05:21;;;;;;;16.40;13.38;;;17.90;99.90;;;;;;4925324;29;20181;-67
2023/05/22 05:07:52;;;;;;;17.10;13.15;;;18.00;99.90;;;;;;4932509;29;20305;-69
2023/05/22 05:10:18;;;;;;;16.65;12.80;;;18.00;99.90;;;;;;4932825;29;20186;-69
2023/05/22 05:12:46;;;;;;;16.40;13.57;;;18.00;99.90;;;;;;4932863;29;20181;-69
2023/05/22 05:15:14;;;;;;;18.00;13.35;;;18.00;99.90;;;;;;4931638;29;20200;-67
2023/05/22 05:17:40;;;;;;;15.15;12.70;;;18.00;99.90;;;;;;4928068;29;20247;-67
2023/05/22 05:20:07;;;;;;;17.27;13.38;;;18.10;99.90;;;;;;4921965;29;20221;-67
2023/05/22 05:22:34;;;;;;;15.48;12.88;;;18.10;99.90;;;;;;4924296;29;20273;-67
2023/05/22 05:25:04;;;;;;;18.00;13.88;;;18.10;99.90;;;;;;4944604;28;20188;-67
2023/05/22 05:27:29;;;;;;;16.58;13.35;;;18.10;99.90;;;;;;4928217;29;20174;-67
2023/05/22 05:29:55;;;;;;;15.85;13.20;;;18.20;99.90;;;;;;4936415;29;20200;-68
2023/05/22 05:32:25;;;;;;;16.52;13.35;;;18.20;99.90;;;;;;4936857;29;20228;-66
2023/05/22 05:34:53;;;;;;;17.92;13.25;;;18.20;99.90;;;;;;4936730;29;20201;-67
2023/05/22 05:37:19;;;;;;;15.95;13.23;;;18.20;99.90;;;;;;4936953;29;20248;-67
2023/05/22 05:39:44;;;;;;;16.55;13.32;;;18.30;99.90;;;;;;4936469;29;20177;-67
2023/05/22 05:42:12;;;;;;;17.45;13.10;;;18.30;99.90;;;;;;4933384;29;20194;-67
2023/05/22 05:44:38;;;;;;;15.82;12.73;;;18.30;99.90;;;;;;4938729;29;20219;-67
2023/05/22 05:47:04;;;;;;;18.30;13.15;;;18.30;99.90;;;;;;4955967;29;20204;-67
2023/05/22 05:49:29;;;;;;;16.08;12.70;;;18.40;99.90;;;;;;4949512;29;20181;-64
2023/05/22 05:51:55;;;;;;;19.23;14.32;;;18.40;99.90;;;;;;4936319;29;20315;-67
2023/05/22 05:54:21;;;;;;;18.98;13.57;;;18.50;99.90;;;;;;4936823;29;20181;-66
2023/05/22 05:56:49;;;;;;;17.13;14.00;;;18.50;99.90;;;;;;4936182;29;20241;-66
2023/05/22 05:59:17;;;;;;;16.23;13.13;;;18.60;99.90;;;;;;4924066;29;20212;-66
2023/05/22 06:01:47;;;;;;;21.45;14.15;;;18.50;99.90;;;;;;4925319;29;20182;-66
2023/05/22 06:04:13;;;;;;;18.42;13.80;;;18.60;99.90;;;;;;4935878;29;20178;-66
2023/05/22 06:06:41;;;;;;;18.83;13.98;;;18.70;99.90;;;;;;4936170;29;20276;-67
2023/05/22 06:09:07;;;;;;;19.67;14.23;;;18.70;99.90;;;;;;4941124;29;20201;-66
2023/05/22 06:11:33;;;;;;;20.05;14.75;;;18.70;99.90;;;;;;4928880;29;20293;-67
2023/05/22 06:14:03;;;;;;;19.83;15.48;;;18.80;99.90;;;;;;4933744;29;20210;-67
2023/05/22 06:16:29;;;;;;;18.77;14.43;;;18.90;99.90;;;;;;4923775;29;20204;-67
2023/05/22 06:18:57;;;;;;;19.17;14.55;;;19.00;99.90;;;;;;4932749;29;20178;-68
2023/05/22 06:21:23;;;;;;;21.42;15.98;;;19.00;99.90;;;;;;4933090;29;20181;-64
2023/05/22 06:23:49;;;;;;;20.95;14.82;;;19.10;99.90;;;;;;4939286;29;20365;-67
2023/05/22 06:26:18;;;;;;;19.10;15.27;;;19.10;99.90;;;;;;4945578;29;20550;-67
2023/05/22 06:28:44;;;;;;;22.92;17.70;;;19.10;99.90;;;;;;4936418;29;20186;-68
2023/05/22 06:31:14;;;;;;;23.02;17.58;;;19.20;99.90;;;;;;4920756;29;20229;-67
2023/05/22 06:33:42;;;;;;;23.13;16.55;;;19.20;99.90;;;;;;4930357;29;20205;-67
2023/05/22 06:36:11;;;;;;;20.58;16.40;;;19.20;99.90;;;;;;4939002;29;20193;-65
2023/05/22 06:38:39;;;;;;;22.70;16.88;;;19.20;99.90;;;;;;4939192;29;20236;-67
2023/05/22 06:41:06;;;;;;;20.70;16.30;;;19.30;99.90;;;;;;4937379;29;20318;-67
2023/05/22 06:43:34;;;;;;;26.20;16.85;;;19.30;99.90;;;;;;4928641;29;20204;-67
2023/05/22 06:46:00;;;;;;;19.70;15.48;;;19.30;99.90;;;;;;4932470;29;20174;-67
2023/05/22 06:48:25;;;;;;;22.27;16.00;;;19.40;99.90;;;;;;4921151;29;20409;-67
2023/05/22 06:50:53;;;;;;;22.77;17.77;;;19.50;99.90;;;;;;4924867;29;20228;-67
2023/05/22 06:53:22;;;;;;;21.88;16.92;;;19.50;99.90;;;;;;4936028;29;20178;-67
2023/05/22 06:55:48;;;;;;;22.02;16.00;;;19.50;99.90;;;;;;4930030;29;20177;-67
2023/05/22 06:58:13;;;;;;;21.33;15.52;;;19.50;99.90;;;;;;4940379;29;20181;-68
2023/05/22 07:00:39;;;;;;;21.98;16.77;;;19.60;99.90;;;;;;4938277;29;20196;-68
2023/05/22 07:03:05;;;;;;;21.27;16.60;;;19.60;99.90;;;;;;4938855;29;20244;-67
2023/05/22 07:05:33;;;;;;;24.38;16.38;;;19.60;99.90;;;;;;4936423;29;20181;-66
2023/05/22 07:08:00;;;;;;;22.40;17.48;;;19.70;99.90;;;;;;4933646;29;20186;-67
2023/05/22 07:10:26;;;;;;;23.00;17.65;;;19.70;99.90;;;;;;4938157;29;20186;-67
2023/05/22 07:12:52;;;;;;;22.52;18.27;;;19.70;99.90;;;;;;4936755;29;20185;-67
2023/05/22 07:15:20;;;;;;;25.63;20.10;;;19.70;99.90;;;;;;4973862;23;20383;-67
2023/05/22 07:17:45;;;;;;;28.60;20.38;;;19.70;99.90;;;;;;4927548;29;20197;-67
2023/05/22 07:20:14;;;;;;;25.33;19.08;;;19.70;99.90;;;;;;4923974;29;20268;-66
2023/05/22 07:22:40;;;;;;;27.92;19.48;;;19.70;99.90;;;;;;4934770;29;20211;-67
2023/05/22 07:25:06;;;;;;;26.40;19.60;;;19.70;99.90;;;;;;4938508;29;20195;-67
2023/05/22 07:27:34;;;;;;;28.02;19.75;;;19.80;99.90;;;;;;4937730;29;20260;-67
2023/05/22 07:30:02;;;;;;;27.42;20.98;;;19.80;99.90;;;;;;4938517;29;20196;-66
2023/05/22 07:32:28;;;;;;;27.45;20.52;;;19.80;99.90;;;;;;4937955;29;20216;-68
2023/05/22 07:34:53;;;;;;;26.35;19.30;;;19.90;99.90;;;;;;4954044;29;20272;-67
2023/05/22 07:37:22;;;;;;;26.50;18.73;;;19.90;99.90;;;;;;4957581;29;20179;-67
2023/05/22 07:39:49;;;;;;;28.13;20.45;;;19.90;99.90;;;;;;4955826;29;20172;-65
2023/05/22 07:42:15;;;;;;;25.70;18.50;;;20.00;99.90;;;;;;4934833;29;20189;-67
2023/05/22 07:44:41;;;;;;;29.15;21.30;;;20.10;99.90;;;;;;4935417;29;20200;-66
2023/05/22 07:47:09;;;;;;;26.27;20.35;;;20.20;99.90;;;;;;4936121;29;20178;-67
2023/05/22 07:49:35;;;;;;;28.25;19.98;;;20.20;99.90;;;;;;4957364;29;20227;-67
2023/05/22 07:52:00;;;;;;;25.63;20.00;;;20.30;99.90;;;;;;4957409;29;20283;-67
2023/05/22 07:54:26;;;;;;;26.63;19.38;;;20.40;99.90;;;;;;4954632;29;20180;-67
2023/05/22 07:56:52;;;;;;;27.42;20.30;;;20.40;99.90;;;;;;4928770;29;20182;-67
2023/05/22 07:59:24;;;;;;;25.42;19.90;;;20.60;99.90;;;;;;4932697;29;20286;-67
2023/05/22 08:01:54;;;;;;;25.90;20.00;;;20.60;99.90;;;;;;4937864;29;20185;-67
2023/05/22 08:04:22;;;;;;;25.92;19.35;;;20.60;99.90;;;;;;4937106;29;20185;-64
2023/05/22 08:06:50;;;;;;;27.27;22.35;;;20.70;99.90;;;;;;4936634;29;20185;-63
2023/05/22 08:09:20;;;;;;;34.85;25.10;;;20.70;99.90;;;;;;4953297;29;20185;-67
2023/05/22 08:11:45;;;;;;;33.00;22.67;;;20.80;99.90;;;;;;4929890;29;20197;-67
2023/05/22 08:14:14;;;;;;;30.05;22.25;;;20.80;99.90;;;;;;4934172;29;20170;-67
2023/05/22 08:16:42;;;;;;;28.60;21.85;;;20.90;99.90;;;;;;4937025;29;20185;-67
2023/05/22 08:19:10;;;;;;;30.38;23.85;;;21.00;99.90;;;;;;4933745;29;20174;-67
2023/05/22 08:21:40;;;;;;;29.63;22.40;;;21.10;99.90;;;;;;4937066;29;20209;-65
2023/05/22 08:24:07;;;;;;;25.88;22.02;;;21.20;99.90;;;;;;4932477;29;20189;-64
2023/05/22 08:26:32;;;;;;;28.00;21.35;;;21.30;99.90;;;;;;4933293;29;20198;-67
2023/05/22 08:29:01;;;;;;;28.08;21.02;;;21.40;99.90;;;;;;4925531;29;20178;-67
2023/05/22 08:31:28;;;;;;;27.05;20.80;;;21.50;99.90;;;;;;4937143;29;20204;-66
2023/05/22 08:34:01;;;;;;;28.92;22.73;;;21.60;99.90;;;;;;4936043;29;20201;-67
2023/05/22 08:36:32;;;;;;;24.48;20.00;;;21.70;99.90;;;;;;4932407;29;20241;-67
2023/05/22 08:39:01;;;;;;;27.65;21.85;;;21.80;99.90;;;;;;4926286;29;20449;-67
2023/05/22 08:41:29;;;;;;;23.30;19.73;;;21.90;99.90;;;;;;4934288;29;20236;-68
2023/05/22 08:43:55;;;;;;;29.45;20.83;;;22.00;99.90;;;;;;4932415;29;20188;-66
2023/05/22 08:46:24;;;;;;;24.10;19.42;;;22.10;99.90;;;;;;4935456;29;20268;-66
2023/05/22 08:48:54;;;;;;;23.00;18.63;;;22.20;99.90;;;;;;4936628;29;20205;-68
2023/05/22 08:51:23;;;;;;;23.00;18.00;;;22.30;99.90;;;;;;4935771;29;20197;-67
2023/05/22 08:53:52;;;;;;;21.17;17.50;;;22.40;99.90;;;;;;4937021;29;20174;-68
2023/05/22 08:56:18;;;;;;;22.92;17.27;;;22.50;99.90;;;;;;4951643;29;20208;-68
2023/05/22 08:58:45;;;;;;;21.50;17.48;;;22.60;99.90;;;;;;4936029;29;20185;-68
2023/05/22 09:01:12;;;;;;;28.55;22.17;;;22.70;99.90;;;;;;4929624;29;20192;-68
2023/05/22 09:03:38;;;;;;;22.90;19.23;;;22.80;99.90;;;;;;4931760;29;20210;-66
2023/05/22 09:06:09;;;;;;;22.42;19.45;;;22.80;99.90;;;;;;4936521;29;20184;-68
2023/05/22 09:08:35;;;;;;;24.55;20.50;;;22.90;99.90;;;;;;4936555;29;20181;-68
2023/05/22 09:11:01;;;;;;;26.60;21.15;;;22.90;99.90;;;;;;4933189;29;20273;-68
2023/05/22 09:13:32;;;;;;;24.83;20.00;;;23.00;99.90;;;;;;4926167;29;20222;-68
2023/05/22 09:15:59;;;;;;;25.50;20.58;;;23.00;99.90;;;;;;4944275;29;20201;-68
2023/05/22 09:18:28;;;;;;;28.40;21.92;;;22.90;99.90;;;;;;4935047;29;20201;-68
2023/05/22 09:21:01;;;;;;;26.05;21.38;;;22.90;99.90;;;;;;4928462;29;20228;-67
2023/05/22 09:23:27;;;;;;;29.30;22.20;;;22.90;99.90;;;;;;4941896;29;20186;-68
2023/05/22 09:26:00;;;;;;;25.98;20.95;;;22.80;99.90;;;;;;4932849;29;20201;-68
2023/05/22 09:28:26;;;;;;;24.35;20.27;;;22.80;99.90;;;;;;4936850;29;20228;-67
2023/05/22 09:30:53;;;;;;;27.02;22.25;;;22.80;99.90;;;;;;4936661;29;20224;-68
2023/05/22 09:33:21;;;;;;;27.40;21.13;;;22.80;99.90;;;;;;4936955;29;20201;-68
2023/05/22 09:35:52;;;;;;;25.60;20.67;;;22.80;99.90;;;;;;4936967;29;20237;-68
2023/05/22 09:38:22;;;;;;;28.58;22.35;;;22.80;99.90;;;;;;4937181;29;20162;-68
2023/05/22 09:40:55;;;;;;;25.92;21.67;;;22.80;99.90;;;;;;4936627;29;20212;-67
2023/05/22 09:43:24;;;;;;;28.73;22.92;;;22.80;99.90;;;;;;4936744;29;20181;-68
2023/05/22 09:46:04;;;;;;;32.22;25.67;;;22.90;99.90;;;;;;4936873;29;20174;-67
2023/05/22 09:48:36;;;;;;;31.58;24.45;;;22.90;99.90;;;;;;4936917;29;20174;-66
2023/05/22 09:51:02;;;;;;;31.83;25.50;;;23.00;99.90;;;;;;4936818;29;20216;-67
2023/05/22 09:53:34;;;;;;;33.90;25.95;;;23.00;99.90;;;;;;4933235;29;20190;-68
2023/05/22 09:56:04;;;;;;;29.65;24.35;;;23.10;99.90;;;;;;4935097;29;20202;-68
2023/05/22 09:58:32;;;;;;;30.48;25.10;;;23.10;99.90;;;;;;4930756;29;20177;-67
2023/05/22 10:01:00;;;;;;;31.92;24.27;;;23.20;99.90;;;;;;4936850;29;20174;-65
2023/05/22 10:03:26;;;;;;;29.58;24.05;;;23.20;99.90;;;;;;4939586;29;20272;-67
2023/05/22 10:05:55;;;;;;;26.90;22.85;;;23.30;99.90;;;;;;4937430;29;20197;-67
2023/05/22 10:08:28;;;;;;;30.23;23.90;;;23.30;99.90;;;;;;4944158;29;20189;-67
2023/05/22 10:10:54;;;;;;;29.00;23.85;;;23.30;99.90;;;;;;4934564;29;20263;-68
2023/05/22 10:13:20;;;;;;;30.30;23.70;;;23.30;99.90;;;;;;4938099;29;20188;-67
2023/05/22 10:15:49;;;;;;;26.63;21.48;;;23.30;99.90;;;;;;4937474;29;20774;-66
2023/05/22 10:18:16;;;;;;;27.55;23.00;;;23.40;99.90;;;;;;4939288;29;20208;-68
2023/05/22 10:20:47;;;;;;;25.40;20.92;;;23.40;99.90;;;;;;4929193;29;20186;-67
2023/05/22 10:23:15;;;;;;;25.55;20.48;;;23.40;99.90;;;;;;4940587;29;20202;-65
2023/05/22 10:25:41;;;;;;;25.92;21.25;;;23.50;99.90;;;;;;4937213;29;20270;-68
2023/05/22 10:28:08;;;;;;;26.70;20.00;;;23.50;99.90;;;;;;4953829;29;20253;-68
2023/05/22 10:30:45;;;;;;;25.20;18.35;;;23.60;99.90;;;;;;4929043;29;20269;-68
2023/05/22 10:33:30;;;;;;;24.63;18.95;;;23.60;99.90;;;;;;4938051;29;20220;-67
2023/05/22 10:36:08;;;;;;;24.00;19.63;;;23.70;99.90;;;;;;4938503;29;20213;-68
2023/05/22 10:38:53;;;;;;;24.92;19.83;;;23.70;99.90;;;;;;4938844;29;20216;-66
2023/05/22 10:41:19;;;;;;;21.27;17.77;;;23.60;99.90;;;;;;4942005;29;20178;-68
2023/05/22 10:43:48;;;;;;;21.05;17.45;;;23.50;99.90;;;;;;4938199;29;20194;-67
2023/05/22 10:46:14;;;;;;;21.00;17.23;;;23.50;99.90;;;;;;4937229;29;20250;-68
2023/05/22 10:48:50;;;;;;;21.13;17.35;;;23.60;99.90;;;;;;4935239;29;20189;-68
2023/05/22 10:51:21;;;;;;;20.65;16.50;;;23.50;99.90;;;;;;4931205;29;20207;-68
2023/05/22 10:53:52;;;;;;;21.58;15.25;;;23.50;99.90;;;;;;4938925;29;20166;-68
2023/05/22 10:56:21;;;;;;;19.35;15.63;;;23.60;99.90;;;;;;4935195;29;20182;-68
2023/05/22 10:59:01;;;;;;;18.95;15.57;;;23.80;99.90;;;;;;4935758;29;20222;-68
2023/05/22 11:01:32;;;;;;;18.63;15.50;;;24.00;99.90;;;;;;4938034;29;20369;-68
2023/05/22 11:04:00;;;;;;;24.85;16.77;;;24.20;99.90;;;;;;4935962;29;20205;-68
2023/05/22 11:07:01;;;;;;;21.25;16.15;;;24.40;99.90;;;;;;4930572;29;20193;-67
2023/05/22 11:09:34;;;;;;;22.20;15.85;;;24.50;99.90;;;;;;4920600;29;20283;-68
2023/05/22 11:12:20;;;;;;;21.27;17.10;;;24.60;99.90;;;;;;4935232;29;20198;-68
2023/05/22 11:14:59;;;;;;;20.73;17.00;;;24.60;99.90;;;;;;4952133;28;20215;-68
2023/05/22 11:17:45;;;;;;;22.35;17.52;;;24.60;99.90;;;;;;4927024;29;20207;-66
2023/05/22 11:20:24;;;;;;;22.13;17.38;;;24.50;99.90;;;;;;4937490;29;20184;-65
2023/05/22 11:23:04;;;;;;;23.50;19.42;;;24.50;99.90;;;;;;4931768;29;20181;-68
2023/05/22 11:25:35;;;;;;;26.77;20.65;;;24.50;99.90;;;;;;4936096;29;20169;-68
2023/05/22 11:28:09;;;;;;;22.23;17.52;;;24.40;99.90;;;;;;4922429;29;20186;-68
2023/05/22 11:30:37;;;;;;;23.33;18.23;;;24.50;99.90;;;;;;4938888;29;20165;-67
2023/05/22 11:33:09;;;;;;;28.33;20.00;;;24.50;99.90;;;;;;4938747;29;20192;-68
2023/05/22 11:35:38;;;;;;;27.55;21.10;;;24.60;99.90;;;;;;4938358;29;20169;-68
2023/05/22 11:38:10;;;;;;;33.05;23.25;;;24.70;99.90;;;;;;4938696;29;20169;-68
2023/05/22 11:40:35;;;;;;;32.08;24.65;;;24.80;99.90;;;;;;4935112;29;20182;-67
2023/05/22 11:43:03;;;;;;;33.92;25.95;;;24.90;99.90;;;;;;4935437;29;20273;-68
2023/05/22 11:45:29;;;;;;;31.55;23.98;;;25.00;99.90;;;;;;4935578;29;20185;-68
2023/05/22 11:47:57;;;;;;;29.08;22.85;;;25.00;99.90;;;;;;4935119;29;20178;-68
2023/05/22 11:50:25;;;;;;;26.38;20.10;;;25.00;99.90;;;;;;4935014;29;20288;-68
2023/05/22 11:52:53;;;;;;;25.67;20.27;;;25.10;99.90;;;;;;4935252;29;20184;-68
2023/05/22 11:55:18;;;;;;;24.05;18.45;;;25.10;99.90;;;;;;4937741;29;20177;-68
2023/05/22 11:57:46;;;;;;;24.75;18.45;;;25.20;99.90;;;;;;4937070;29;20211;-67
2023/05/22 12:00:12;;;;;;;27.58;19.70;;;25.20;99.90;;;;;;4937902;29;20169;-67
2023/05/22 12:02:43;;;;;;;23.70;18.42;;;25.30;99.90;;;;;;4934653;29;20182;-68
2023/05/22 12:05:10;;;;;;;26.63;19.98;;;25.40;99.90;;;;;;4932834;29;20205;-68
2023/05/22 12:07:39;;;;;;;22.65;17.38;;;25.40;99.90;;;;;;4937245;29;20272;-68
2023/05/22 12:10:06;;;;;;;22.98;18.00;;;25.40;99.90;;;;;;4937250;29;20185;-68
2023/05/22 12:12:32;;;;;;;23.80;18.55;;;25.50;99.90;;;;;;4936789;29;20300;-67
2023/05/22 12:14:57;;;;;;;25.13;18.33;;;25.50;99.90;;;;;;4934276;29;20188;-68
2023/05/22 12:17:23;;;;;;;24.77;18.20;;;25.50;99.90;;;;;;4933437;29;20178;-68
2023/05/22 12:19:52;;;;;;;25.48;18.00;;;25.50;99.90;;;;;;4937465;29;20206;-68
2023/05/22 12:22:21;;;;;;;24.42;19.35;;;25.50;99.90;;;;;;4936183;29;20442;-67
2023/05/22 12:24:51;;;;;;;24.80;19.73;;;25.50;99.90;;;;;;4931901;29;20185;-68
2023/05/22 12:27:18;;;;;;;24.02;18.67;;;25.60;99.90;;;;;;4936280;29;20205;-68
2023/05/22 12:29:46;;;;;;;26.42;19.52;;;25.60;99.90;;;;;;4937294;29;20281;-68
2023/05/22 12:32:16;;;;;;;24.83;18.67;;;25.60;99.90;;;;;;4936724;29;20197;-68
2023/05/22 12:34:45;;;;;;;23.98;17.40;;;25.60;99.90;;;;;;4936775;29;20205;-68
2023/05/22 12:37:37;;;;;;;23.23;17.65;;;25.60;99.90;;;;;;4936178;29;20173;-68